Time;durP1;ratioP1;P1;durP2;ratioP2;P2;SDS_P1;SDS_P2;PMS_P1;PMS_P2;Temp;Humidity;BMP_temperature;BMP_pressure;BME280_temperature;BME280_humidity;BME280_pressure;Samples;Min_cycle;Max_cycle;Signal;HPM_P1;HPM_P2
2023/08/13 00:00:15;;;;;;;6.50;5.90;;;22.30;99.90;;;;;;5034071;28;20256;-70
2023/08/13 00:02:40;;;;;;;7.40;6.70;;;22.20;99.90;;;;;;5051971;28;20389;-70
2023/08/13 00:05:07;;;;;;;7.07;6.07;;;22.20;99.90;;;;;;5052112;28;20404;-70
2023/08/13 00:07:33;;;;;;;6.17;5.60;;;22.30;99.90;;;;;;5051693;28;20248;-70
2023/08/13 00:09:58;;;;;;;6.33;5.73;;;22.30;99.90;;;;;;5051631;28;20442;-70
2023/08/13 00:12:24;;;;;;;7.20;6.50;;;22.40;99.90;;;;;;5052159;28;20269;-70
2023/08/13 00:14:49;;;;;;;5.97;5.47;;;22.40;99.90;;;;;;5052035;28;20675;-70
2023/08/13 00:17:15;;;;;;;5.83;5.33;;;22.30;99.90;;;;;;5051672;28;20572;-70
2023/08/13 00:19:40;;;;;;;7.77;7.00;;;22.20;99.90;;;;;;5033985;28;20194;-70
2023/08/13 00:22:06;;;;;;;8.73;6.23;;;22.20;99.90;;;;;;5053786;28;20191;-70
2023/08/13 00:24:31;;;;;;;5.43;4.93;;;22.20;99.90;;;;;;5055516;28;20171;-69
2023/08/13 00:26:57;;;;;;;6.00;5.50;;;22.30;99.90;;;;;;5055013;28;20249;-70
2023/08/13 00:29:23;;;;;;;7.50;6.80;;;22.30;99.90;;;;;;5055304;28;20258;-70
2023/08/13 00:31:48;;;;;;;6.43;5.70;;;22.20;99.90;;;;;;5055678;28;20205;-70
2023/08/13 00:34:14;;;;;;;7.57;5.60;;;22.20;99.90;;;;;;5055454;28;20174;-70
2023/08/13 00:36:39;;;;;;;6.20;5.50;;;22.10;99.90;;;;;;5054929;28;20171;-70
2023/08/13 00:39:05;;;;;;;6.50;5.90;;;22.00;99.90;;;;;;5055057;28;20194;-70
2023/08/13 00:41:30;;;;;;;5.53;5.03;;;22.00;99.90;;;;;;5055170;28;20582;-70
2023/08/13 00:43:56;;;;;;;6.80;5.07;;;22.00;99.90;;;;;;5054974;28;20245;-70
2023/08/13 00:46:21;;;;;;;5.93;5.40;;;22.10;99.90;;;;;;5054925;28;20159;-70
2023/08/13 00:48:48;;;;;;;6.23;5.63;;;22.10;99.90;;;;;;5054916;28;20186;-70
2023/08/13 00:51:14;;;;;;;5.20;4.70;;;22.00;99.90;;;;;;5054683;28;20518;-69
2023/08/13 00:53:48;;;;;;;5.50;5.00;;;21.90;99.90;;;;;;5055167;28;20885;-70
2023/08/13 00:56:15;;;;;;;5.50;4.97;;;22.00;99.90;;;;;;5052757;28;20400;-70
2023/08/13 00:58:42;;;;;;;6.17;5.57;;;22.00;99.90;;;;;;5050527;28;20531;-70
2023/08/13 01:01:08;;;;;;;6.90;5.00;;;22.00;99.90;;;;;;5054709;28;20406;-70
2023/08/13 01:03:36;;;;;;;4.80;4.40;;;22.00;99.90;;;;;;5054768;28;20398;-69
2023/08/13 01:06:18;;;;;;;5.70;5.13;;;21.90;99.90;;;;;;5054451;28;20443;-70
2023/08/13 01:08:56;;;;;;;5.10;4.70;;;21.80;99.90;;;;;;5052166;28;20425;-69
2023/08/13 01:11:40;;;;;;;6.10;4.90;;;21.80;99.90;;;;;;5054305;28;20400;-70
2023/08/13 01:14:15;;;;;;;6.13;5.50;;;21.80;99.90;;;;;;5054445;28;20737;-70
2023/08/13 01:16:43;;;;;;;6.07;5.37;;;21.70;99.90;;;;;;5054014;28;20436;-71
2023/08/13 01:19:15;;;;;;;5.50;4.73;;;21.60;99.90;;;;;;5054317;28;20444;-70
2023/08/13 01:21:40;;;;;;;8.13;4.60;;;21.60;99.90;;;;;;5054434;28;20450;-70
2023/08/13 01:24:06;;;;;;;8.43;6.10;;;21.50;99.90;;;;;;5054426;28;20401;-69
2023/08/13 01:26:47;;;;;;;6.27;4.80;;;21.50;99.90;;;;;;5053217;28;20171;-69
2023/08/13 01:29:20;;;;;;;4.90;4.37;;;21.50;99.90;;;;;;5050105;28;20170;-68
2023/08/13 01:31:50;;;;;;;5.67;4.87;;;21.50;99.90;;;;;;5054228;28;20393;-70
2023/08/13 01:34:17;;;;;;;5.33;4.63;;;21.50;99.90;;;;;;5052965;28;20459;-70
2023/08/13 01:36:45;;;;;;;5.43;4.93;;;21.50;99.90;;;;;;5053654;28;20539;-69
2023/08/13 01:39:11;;;;;;;7.77;6.50;;;21.40;99.90;;;;;;5053936;28;20452;-70
2023/08/13 01:41:50;;;;;;;5.00;4.60;;;21.50;99.90;;;;;;5053646;28;21434;-70
2023/08/13 01:44:16;;;;;;;4.87;4.43;;;21.50;99.90;;;;;;5050122;28;20389;-70
2023/08/13 01:46:42;;;;;;;6.00;5.43;;;21.50;99.90;;;;;;5054095;28;20485;-70
2023/08/13 01:49:07;;;;;;;6.30;5.80;;;21.50;99.90;;;;;;5053898;28;20832;-71
2023/08/13 01:51:33;;;;;;;5.80;5.20;;;21.50;99.90;;;;;;5053690;28;20699;-69
2023/08/13 01:53:58;;;;;;;5.50;5.00;;;21.40;99.90;;;;;;5053666;28;20171;-70
2023/08/13 01:56:24;;;;;;;5.27;4.77;;;21.40;99.90;;;;;;5053552;28;20593;-69
2023/08/13 01:58:49;;;;;;;6.10;4.90;;;21.40;99.90;;;;;;5053443;28;20193;-70
2023/08/13 02:01:15;;;;;;;5.33;4.83;;;21.50;99.90;;;;;;5053563;28;20197;-70
2023/08/13 02:03:40;;;;;;;4.50;4.10;;;21.50;99.90;;;;;;5053305;28;20202;-70
2023/08/13 02:06:06;;;;;;;5.77;5.20;;;21.50;99.90;;;;;;5053209;28;20166;-70
2023/08/13 02:08:32;;;;;;;5.73;4.30;;;21.50;99.90;;;;;;5053412;28;20229;-70
2023/08/13 02:10:58;;;;;;;7.77;5.30;;;21.60;99.90;;;;;;5053354;28;20281;-70
2023/08/13 02:13:24;;;;;;;5.20;4.73;;;21.60;99.90;;;;;;5053600;28;20186;-70
2023/08/13 02:15:49;;;;;;;5.67;4.40;;;21.50;99.90;;;;;;5053330;28;20914;-70
2023/08/13 02:18:15;;;;;;;6.33;5.20;;;21.60;99.90;;;;;;5053660;28;20221;-70
2023/08/13 02:20:41;;;;;;;5.13;4.63;;;21.60;99.90;;;;;;5052987;28;20171;-70
2023/08/13 02:23:06;;;;;;;5.10;4.60;;;21.70;99.90;;;;;;5053260;28;20656;-70
2023/08/13 02:25:32;;;;;;;6.10;5.50;;;21.70;99.90;;;;;;5052663;28;20174;-70
2023/08/13 02:27:57;;;;;;;6.30;5.70;;;21.70;99.90;;;;;;5053041;28;20191;-70
2023/08/13 02:30:23;;;;;;;6.23;5.73;;;21.80;99.90;;;;;;5053412;28;20163;-70
2023/08/13 02:32:49;;;;;;;6.17;4.40;;;21.80;99.90;;;;;;5053044;28;20190;-70
2023/08/13 02:35:14;;;;;;;5.30;4.60;;;21.80;99.90;;;;;;5052947;28;20225;-70
2023/08/13 02:37:40;;;;;;;4.80;4.40;;;21.80;99.90;;;;;;5052701;28;20222;-71
2023/08/13 02:40:06;;;;;;;5.30;4.80;;;21.80;99.90;;;;;;5053012;28;20222;-70
2023/08/13 02:42:33;;;;;;;5.90;5.23;;;21.80;99.90;;;;;;5052630;28;20170;-70
2023/08/13 02:44:58;;;;;;;4.87;4.37;;;21.90;99.90;;;;;;5052720;28;20771;-70
2023/08/13 02:47:24;;;;;;;5.60;5.10;;;21.90;99.90;;;;;;5052804;28;20421;-69
2023/08/13 02:49:50;;;;;;;11.27;4.80;;;21.90;99.90;;;;;;5034913;28;20174;-70
2023/08/13 02:52:16;;;;;;;7.23;5.23;;;22.00;99.90;;;;;;5052888;28;20424;-72
2023/08/13 02:54:41;;;;;;;5.57;5.10;;;22.00;99.90;;;;;;5052934;28;20257;-69
2023/08/13 02:57:07;;;;;;;5.30;4.80;;;21.90;99.90;;;;;;5052315;28;20190;-70
2023/08/13 02:59:33;;;;;;;4.93;4.37;;;21.90;99.90;;;;;;5052791;28;20674;-70
2023/08/13 03:01:58;;;;;;;6.37;5.87;;;21.80;99.90;;;;;;5052913;28;20645;-70
2023/08/13 03:04:24;;;;;;;5.80;5.30;;;21.90;99.90;;;;;;5052666;28;20268;-70
2023/08/13 03:06:49;;;;;;;6.60;6.00;;;22.00;99.90;;;;;;5052647;28;20166;-71
2023/08/13 03:09:22;;;;;;;8.03;5.33;;;22.00;99.90;;;;;;5052544;28;20185;-71
2023/08/13 03:11:48;;;;;;;4.80;4.30;;;22.00;99.90;;;;;;5048498;28;20177;-70
2023/08/13 03:14:14;;;;;;;5.43;4.57;;;22.00;99.90;;;;;;5052440;28;20409;-70
2023/08/13 03:16:40;;;;;;;5.40;4.60;;;22.10;99.90;;;;;;5052301;28;20401;-70
2023/08/13 03:19:06;;;;;;;5.87;5.03;;;21.90;99.90;;;;;;5052580;28;20447;-70
2023/08/13 03:21:31;;;;;;;4.60;4.20;;;21.90;99.90;;;;;;5052290;28;20171;-70
2023/08/13 03:23:57;;;;;;;5.10;4.70;;;22.00;99.90;;;;;;5034480;28;20261;-70
2023/08/13 03:26:22;;;;;;;6.47;4.20;;;22.00;99.90;;;;;;5052042;28;20174;-70
2023/08/13 03:28:48;;;;;;;5.53;5.00;;;22.00;99.90;;;;;;5052405;28;20277;-70
2023/08/13 03:31:13;;;;;;;6.53;5.93;;;22.10;99.90;;;;;;5052283;28;20540;-69
2023/08/13 03:33:39;;;;;;;4.87;4.43;;;22.10;99.90;;;;;;5052415;28;20254;-69
2023/08/13 03:36:05;;;;;;;5.30;4.30;;;22.00;99.90;;;;;;5052182;28;20197;-70
2023/08/13 03:38:30;;;;;;;8.17;4.90;;;22.10;99.90;;;;;;5052095;28;20264;-70
2023/08/13 03:40:56;;;;;;;5.27;4.80;;;22.10;99.90;;;;;;5051891;28;20174;-70
2023/08/13 03:43:22;;;;;;;6.80;5.70;;;22.10;99.90;;;;;;5052287;28;20240;-71
2023/08/13 03:45:48;;;;;;;5.17;4.67;;;22.10;99.90;;;;;;5052194;28;20446;-69
2023/08/13 03:48:13;;;;;;;4.27;3.97;;;22.20;99.90;;;;;;5052662;28;20187;-70
2023/08/13 03:50:42;;;;;;;4.73;3.87;;;22.20;99.90;;;;;;5052054;28;20339;-69
2023/08/13 03:53:09;;;;;;;4.13;3.83;;;22.30;99.90;;;;;;5048144;28;20171;-70
2023/08/13 03:55:36;;;;;;;4.10;3.80;;;22.20;99.90;;;;;;5050946;28;20431;-70
2023/08/13 03:58:02;;;;;;;5.23;4.50;;;22.20;99.90;;;;;;5055797;28;20428;-70
2023/08/13 04:00:28;;;;;;;5.40;4.90;;;22.20;99.90;;;;;;5056040;28;20397;-70
2023/08/13 04:02:54;;;;;;;5.63;4.50;;;22.20;99.90;;;;;;5055815;28;20397;-70
2023/08/13 04:05:20;;;;;;;5.23;4.73;;;22.10;99.90;;;;;;5055727;28;20405;-70
2023/08/13 04:07:45;;;;;;;7.33;5.07;;;22.10;99.90;;;;;;5055485;28;20508;-70
2023/08/13 04:10:11;;;;;;;6.10;5.60;;;22.10;99.90;;;;;;5056000;28;20177;-70
2023/08/13 04:12:36;;;;;;;6.27;5.67;;;22.10;99.90;;;;;;5055812;28;20199;-70
2023/08/13 04:15:03;;;;;;;5.60;5.10;;;22.00;99.90;;;;;;5055796;28;20693;-69
2023/08/13 04:17:28;;;;;;;6.73;4.93;;;22.00;99.90;;;;;;5055438;28;20214;-70
2023/08/13 04:19:54;;;;;;;4.87;4.47;;;21.90;99.90;;;;;;5055431;28;20445;-70
2023/08/13 04:22:19;;;;;;;5.60;5.20;;;22.00;99.90;;;;;;5055274;28;20171;-70
2023/08/13 04:24:51;;;;;;;6.70;5.20;;;22.10;99.90;;;;;;5055414;28;20175;-69
2023/08/13 04:27:19;;;;;;;5.00;4.60;;;22.10;99.90;;;;;;5055279;28;20565;-70
2023/08/13 04:29:45;;;;;;;5.87;5.23;;;21.90;99.90;;;;;;5055330;28;20401;-70
2023/08/13 04:32:11;;;;;;;4.80;4.40;;;21.80;99.90;;;;;;5055284;28;20401;-70
2023/08/13 04:34:36;;;;;;;5.73;5.00;;;21.80;99.90;;;;;;5055281;28;20178;-70
2023/08/13 04:37:03;;;;;;;7.70;4.80;;;21.90;99.90;;;;;;5054887;28;20793;-71
2023/08/13 04:39:29;;;;;;;4.60;4.20;;;22.00;99.90;;;;;;5055186;28;20561;-70
2023/08/13 04:41:59;;;;;;;6.20;5.60;;;22.00;99.90;;;;;;5054892;28;20401;-71
2023/08/13 04:44:25;;;;;;;8.43;5.60;;;22.10;99.90;;;;;;5051420;28;20155;-70
2023/08/13 04:46:51;;;;;;;5.47;5.00;;;22.20;99.90;;;;;;5054899;28;20405;-69
2023/08/13 04:49:16;;;;;;;6.17;5.60;;;22.20;99.90;;;;;;5055012;28;20249;-69
2023/08/13 04:51:42;;;;;;;5.80;5.30;;;22.30;99.90;;;;;;5054760;28;20588;-69
2023/08/13 04:54:07;;;;;;;6.97;6.30;;;22.30;99.90;;;;;;5055285;28;20171;-71
2023/08/13 04:56:33;;;;;;;5.30;4.90;;;22.20;99.90;;;;;;5054530;28;20655;-70
2023/08/13 04:58:59;;;;;;;5.67;5.17;;;22.20;99.90;;;;;;5054616;28;20653;-70
2023/08/13 05:01:24;;;;;;;5.07;4.67;;;22.20;99.90;;;;;;5054712;28;20178;-71
2023/08/13 05:03:50;;;;;;;6.67;5.67;;;22.20;99.90;;;;;;5054656;28;20242;-71
2023/08/13 05:06:15;;;;;;;7.40;6.20;;;22.20;99.90;;;;;;5054266;28;20171;-70
2023/08/13 05:08:41;;;;;;;6.60;6.00;;;22.10;99.90;;;;;;5054199;28;20230;-70
2023/08/13 05:11:07;;;;;;;7.13;6.30;;;22.20;99.90;;;;;;5054610;28;20674;-71
2023/08/13 05:13:33;;;;;;;5.33;4.57;;;22.20;99.90;;;;;;5054711;28;20401;-71
2023/08/13 05:15:59;;;;;;;5.70;5.17;;;22.40;99.90;;;;;;5054737;28;20197;-71
2023/08/13 05:18:24;;;;;;;5.13;4.73;;;22.40;99.90;;;;;;5036493;28;20469;-71
2023/08/13 05:20:50;;;;;;;5.30;4.80;;;22.50;99.90;;;;;;5054404;28;20215;-70
2023/08/13 05:23:16;;;;;;;7.00;6.17;;;22.50;99.90;;;;;;5054493;28;20174;-71
2023/08/13 05:25:42;;;;;;;13.10;5.50;;;22.50;99.90;;;;;;5054405;28;20159;-70
2023/08/13 05:28:08;;;;;;;6.60;5.90;;;22.60;99.90;;;;;;5054191;28;20193;-71
2023/08/13 05:30:36;;;;;;;4.70;4.30;;;22.70;99.90;;;;;;5054526;28;20163;-70
2023/08/13 05:33:02;;;;;;;4.70;4.40;;;22.70;99.90;;;;;;5050326;28;20934;-71
2023/08/13 05:35:28;;;;;;;7.57;6.80;;;22.70;99.90;;;;;;5054098;28;20405;-72
2023/08/13 05:37:53;;;;;;;5.60;4.83;;;22.70;99.90;;;;;;5053719;28;20597;-71
2023/08/13 05:40:19;;;;;;;5.57;5.03;;;22.70;99.90;;;;;;5054179;28;20191;-72
2023/08/13 05:42:46;;;;;;;12.00;5.27;;;22.70;99.90;;;;;;5053697;28;20163;-71
2023/08/13 05:45:12;;;;;;;6.00;5.40;;;22.70;99.90;;;;;;5054019;28;20208;-71
2023/08/13 05:47:37;;;;;;;5.73;5.27;;;22.50;99.90;;;;;;5054260;28;20421;-71
2023/08/13 05:50:03;;;;;;;5.70;4.57;;;22.50;99.90;;;;;;5053788;28;20432;-71
2023/08/13 05:52:29;;;;;;;5.90;4.70;;;22.70;99.90;;;;;;5053457;28;20170;-71
2023/08/13 05:54:55;;;;;;;6.43;5.70;;;22.80;99.90;;;;;;5053678;28;20496;-70
2023/08/13 05:57:21;;;;;;;5.67;5.00;;;22.80;99.90;;;;;;5035507;28;20937;-71
2023/08/13 05:59:47;;;;;;;6.33;5.20;;;22.80;99.90;;;;;;5053670;28;20187;-70
2023/08/13 06:02:12;;;;;;;6.00;4.63;;;22.90;99.90;;;;;;5053140;28;20167;-71
2023/08/13 06:04:38;;;;;;;6.33;4.97;;;22.90;99.90;;;;;;5053609;28;20202;-70
2023/08/13 06:07:04;;;;;;;5.87;5.37;;;23.00;99.90;;;;;;5053264;28;20194;-71
2023/08/13 06:09:30;;;;;;;6.77;5.80;;;23.10;99.90;;;;;;5053778;28;20171;-71
2023/08/13 06:11:56;;;;;;;5.50;5.00;;;23.10;99.90;;;;;;5053526;28;20198;-71
2023/08/13 06:14:21;;;;;;;5.70;5.20;;;22.90;99.90;;;;;;5054438;28;20487;-72
2023/08/13 06:16:47;;;;;;;6.77;6.07;;;22.30;99.90;;;;;;5055137;28;20175;-73
2023/08/13 06:19:13;;;;;;;5.50;5.00;;;22.00;99.90;;;;;;5054521;28;20191;-73
2023/08/13 06:21:38;;;;;;;6.23;5.73;;;22.40;99.90;;;;;;5054966;28;20201;-71
2023/08/13 06:24:05;;;;;;;6.70;6.10;;;22.70;99.90;;;;;;5036056;28;20163;-72
2023/08/13 06:26:31;;;;;;;8.43;5.83;;;22.80;99.90;;;;;;5053727;28;20171;-71
2023/08/13 06:28:57;;;;;;;5.70;5.00;;;23.00;99.90;;;;;;5053559;28;20437;-71
2023/08/13 06:31:23;;;;;;;7.03;6.50;;;23.10;99.90;;;;;;5053559;28;20412;-72
2023/08/13 06:33:48;;;;;;;8.50;6.10;;;23.20;99.90;;;;;;5053699;28;20540;-72
2023/08/13 06:36:14;;;;;;;5.83;5.23;;;23.10;99.90;;;;;;5053186;28;20163;-71
2023/08/13 06:38:39;;;;;;;6.57;5.97;;;23.10;99.90;;;;;;5053126;28;20210;-71
2023/08/13 06:41:08;;;;;;;6.67;4.60;;;23.30;99.90;;;;;;5052868;28;20254;-71
2023/08/13 06:43:34;;;;;;;5.67;5.03;;;23.30;99.90;;;;;;5053063;28;20165;-70
2023/08/13 06:46:01;;;;;;;6.43;5.83;;;23.30;99.90;;;;;;5053101;28;20751;-71
2023/08/13 06:48:30;;;;;;;5.50;5.10;;;23.00;99.90;;;;;;5052818;28;20460;-71
2023/08/13 06:50:57;;;;;;;6.30;5.80;;;23.00;99.90;;;;;;5052955;28;20413;-71
2023/08/13 06:53:24;;;;;;;7.13;6.43;;;23.10;99.90;;;;;;5053001;28;20416;-71
2023/08/13 06:55:49;;;;;;;7.77;6.53;;;23.30;99.90;;;;;;5052964;28;20405;-71
2023/08/13 06:58:16;;;;;;;6.50;5.90;;;23.30;99.90;;;;;;5052320;28;21016;-70
2023/08/13 07:00:41;;;;;;;6.83;6.13;;;23.40;99.90;;;;;;5052738;28;20155;-71
2023/08/13 07:03:08;;;;;;;6.70;6.00;;;23.30;99.90;;;;;;5052983;28;20397;-71
2023/08/13 07:05:35;;;;;;;6.63;6.07;;;23.20;99.90;;;;;;5052497;28;20201;-71
2023/08/13 07:08:01;;;;;;;6.17;5.50;;;23.10;99.90;;;;;;5052453;28;20421;-71
2023/08/13 07:10:28;;;;;;;7.00;6.07;;;23.20;99.90;;;;;;5034668;28;20409;-71
2023/08/13 07:12:53;;;;;;;7.53;6.90;;;23.40;99.90;;;;;;5052419;28;20162;-71
2023/08/13 07:15:19;;;;;;;5.70;5.10;;;23.50;99.90;;;;;;5052688;28;20770;-71
2023/08/13 07:17:44;;;;;;;6.07;5.60;;;23.50;99.90;;;;;;5034381;28;20213;-71
2023/08/13 07:20:13;;;;;;;6.53;5.90;;;23.50;99.90;;;;;;5052287;28;20182;-71
2023/08/13 07:22:43;;;;;;;6.20;5.60;;;23.60;99.90;;;;;;5052464;28;20224;-71
2023/08/13 07:25:09;;;;;;;7.53;5.77;;;23.70;99.90;;;;;;5052428;28;20416;-71
2023/08/13 07:27:34;;;;;;;6.47;5.83;;;23.70;99.90;;;;;;5051919;28;20449;-70
2023/08/13 07:30:01;;;;;;;5.77;5.27;;;23.90;99.90;;;;;;5052809;28;20483;-71
2023/08/13 07:32:28;;;;;;;6.27;5.77;;;23.90;99.90;;;;;;5056503;28;20250;-71
2023/08/13 07:34:53;;;;;;;4.47;4.17;;;24.10;99.90;;;;;;5056708;28;20401;-71
2023/08/13 07:37:19;;;;;;;7.73;7.07;;;24.30;99.90;;;;;;5055968;28;20536;-71
2023/08/13 07:39:45;;;;;;;10.03;7.00;;;24.30;99.90;;;;;;5056550;28;20524;-71
2023/08/13 07:42:10;;;;;;;7.10;6.40;;;24.10;99.90;;;;;;5056385;28;20162;-72
2023/08/13 07:44:36;;;;;;;7.57;6.97;;;23.90;99.90;;;;;;5056332;28;20170;-71
2023/08/13 07:47:02;;;;;;;7.00;6.40;;;24.10;99.90;;;;;;5056199;28;20269;-71
2023/08/13 07:49:28;;;;;;;9.17;8.40;;;23.90;99.90;;;;;;5056531;28;20923;-71
2023/08/13 07:51:53;;;;;;;8.20;7.40;;;23.90;99.90;;;;;;5056001;28;20806;-71
2023/08/13 07:54:22;;;;;;;6.73;6.13;;;23.80;99.90;;;;;;5056114;28;20253;-72
2023/08/13 07:56:48;;;;;;;7.07;6.43;;;24.00;99.90;;;;;;5055632;28;20509;-71
2023/08/13 07:59:14;;;;;;;7.60;6.90;;;24.30;99.90;;;;;;5055504;28;20452;-72
2023/08/13 08:01:42;;;;;;;6.60;6.00;;;24.60;99.90;;;;;;5056495;28;20204;-71
2023/08/13 08:04:07;;;;;;;7.00;6.30;;;24.40;99.90;;;;;;5056313;28;20410;-71
2023/08/13 08:06:33;;;;;;;6.20;5.63;;;24.30;99.90;;;;;;5055615;28;20463;-70
2023/08/13 08:08:58;;;;;;;6.63;6.03;;;24.60;99.90;;;;;;5055670;28;20237;-71
2023/08/13 08:11:24;;;;;;;6.50;5.90;;;24.50;99.90;;;;;;5055716;28;20237;-71
2023/08/13 08:13:50;;;;;;;6.80;6.10;;;24.30;99.90;;;;;;5055954;28;20173;-70
2023/08/13 08:16:15;;;;;;;5.70;5.10;;;24.50;99.90;;;;;;5055660;28;20308;-72
2023/08/13 08:18:41;;;;;;;7.30;6.60;;;24.60;99.90;;;;;;5070285;22;20238;-71
2023/08/13 08:21:06;;;;;;;6.33;5.73;;;24.50;99.90;;;;;;5055942;28;20531;-72
2023/08/13 08:23:35;;;;;;;7.20;5.80;;;24.60;99.90;;;;;;5055440;28;20538;-71
2023/08/13 08:26:00;;;;;;;6.03;5.37;;;24.60;99.90;;;;;;5055602;28;20175;-71
2023/08/13 08:28:26;;;;;;;7.63;6.93;;;24.80;99.90;;;;;;5055329;28;20500;-71
2023/08/13 08:30:52;;;;;;;7.17;6.57;;;24.90;99.90;;;;;;5055633;28;20166;-71
2023/08/13 08:33:21;;;;;;;7.00;6.40;;;24.80;99.90;;;;;;5055778;28;20201;-71
2023/08/13 08:35:46;;;;;;;6.80;6.20;;;24.40;99.90;;;;;;5055717;28;20401;-70
2023/08/13 08:38:13;;;;;;;6.80;6.20;;;23.90;99.90;;;;;;5055085;28;20798;-71
2023/08/13 08:40:38;;;;;;;8.43;7.63;;;23.90;99.90;;;;;;5055692;28;20171;-72
2023/08/13 08:43:04;;;;;;;6.43;5.90;;;23.80;99.90;;;;;;5054540;28;20489;-71
2023/08/13 08:45:30;;;;;;;6.00;5.50;;;24.00;99.90;;;;;;5054721;28;20174;-71
2023/08/13 08:47:57;;;;;;;6.73;6.13;;;24.10;99.90;;;;;;5054929;28;20191;-71
2023/08/13 08:50:23;;;;;;;6.03;5.53;;;24.30;99.90;;;;;;5054979;28;20491;-71
2023/08/13 08:52:49;;;;;;;6.70;6.20;;;24.50;99.90;;;;;;5054715;28;20559;-70
2023/08/13 08:55:16;;;;;;;6.20;5.70;;;24.70;99.90;;;;;;5054763;28;20167;-71
2023/08/13 08:57:41;;;;;;;7.10;6.40;;;24.90;99.90;;;;;;5054498;28;20508;-70
2023/08/13 09:00:08;;;;;;;6.27;5.77;;;24.70;99.90;;;;;;5054683;28;21026;-71
2023/08/13 09:02:34;;;;;;;6.53;4.87;;;24.70;99.90;;;;;;5054669;28;20163;-71
2023/08/13 09:05:00;;;;;;;6.03;5.53;;;24.70;99.90;;;;;;5055107;28;20758;-71
2023/08/13 09:07:31;;;;;;;7.57;6.67;;;24.70;99.90;;;;;;5054478;28;20186;-70
2023/08/13 09:09:57;;;;;;;6.90;6.20;;;24.70;99.90;;;;;;5054707;28;20177;-71
2023/08/13 09:12:23;;;;;;;4.70;4.30;;;24.50;99.90;;;;;;5054666;28;20417;-71
2023/08/13 09:14:54;;;;;;;6.07;5.47;;;24.60;99.90;;;;;;5054547;28;20413;-71
2023/08/13 09:17:24;;;;;;;6.33;5.77;;;24.80;99.90;;;;;;5054166;28;20271;-71
2023/08/13 09:19:50;;;;;;;6.27;5.67;;;25.10;99.90;;;;;;5054549;28;20449;-70
2023/08/13 09:22:15;;;;;;;5.60;4.90;;;25.30;99.90;;;;;;5054021;28;20436;-71
2023/08/13 09:24:41;;;;;;;5.63;4.60;;;25.40;99.90;;;;;;5054266;28;20193;-71
2023/08/13 09:27:08;;;;;;;5.80;5.20;;;25.20;99.90;;;;;;5054080;28;20175;-70
2023/08/13 09:29:36;;;;;;;5.53;5.07;;;25.40;99.90;;;;;;5054199;28;20171;-72
2023/08/13 09:32:03;;;;;;;7.07;5.23;;;25.50;99.90;;;;;;5054068;28;20409;-71
2023/08/13 09:34:31;;;;;;;5.60;5.00;;;25.80;99.90;;;;;;5054027;28;20496;-70
2023/08/13 09:36:57;;;;;;;6.63;6.03;;;26.00;99.90;;;;;;5053765;28;20895;-70
2023/08/13 09:39:28;;;;;;;5.13;4.70;;;26.40;99.90;;;;;;5053922;28;20453;-71
2023/08/13 09:41:54;;;;;;;5.30;4.80;;;26.60;99.90;;;;;;5053755;28;20421;-71
2023/08/13 09:44:24;;;;;;;5.40;4.90;;;26.60;99.90;;;;;;5054208;28;20421;-70
2023/08/13 09:46:54;;;;;;;4.90;4.40;;;26.60;99.90;;;;;;5049631;28;20645;-71
2023/08/13 09:49:25;;;;;;;5.43;5.03;;;26.60;99.90;;;;;;5053782;28;20465;-70
2023/08/13 09:51:52;;;;;;;5.70;5.30;;;26.30;99.90;;;;;;5053755;28;20412;-70
2023/08/13 09:54:31;;;;;;;5.30;4.90;;;26.40;99.90;;;;;;5052390;28;20488;-70
2023/08/13 09:57:07;;;;;;;8.20;6.13;;;26.60;99.90;;;;;;5053250;28;20401;-71
2023/08/13 09:59:37;;;;;;;6.97;6.30;;;27.00;99.90;;;;;;5052932;28;20452;-71
2023/08/13 10:02:07;;;;;;;5.90;5.40;;;27.00;99.90;;;;;;5053497;28;20406;-70
2023/08/13 10:04:38;;;;;;;5.40;4.90;;;27.10;99.90;;;;;;5053198;28;20451;-71
2023/08/13 10:07:05;;;;;;;4.57;4.17;;;26.80;99.90;;;;;;5049492;28;20382;-71
2023/08/13 10:09:31;;;;;;;4.97;4.50;;;27.10;99.90;;;;;;5053525;28;20459;-71
2023/08/13 10:11:57;;;;;;;4.87;4.37;;;27.00;99.90;;;;;;5053179;28;20420;-71
2023/08/13 10:14:30;;;;;;;6.17;5.40;;;27.10;99.90;;;;;;5070015;28;20515;-70
2023/08/13 10:17:00;;;;;;;5.37;4.70;;;27.10;99.90;;;;;;5069880;28;20766;-70
2023/08/13 10:19:29;;;;;;;7.70;5.93;;;27.50;99.90;;;;;;5069778;28;20452;-71
2023/08/13 10:21:56;;;;;;;5.07;4.73;;;27.50;99.90;;;;;;5069785;28;20388;-71
2023/08/13 10:24:22;;;;;;;4.93;4.43;;;27.80;99.90;;;;;;5069386;28;20405;-71
2023/08/13 10:26:48;;;;;;;5.77;5.30;;;27.70;99.90;;;;;;5069434;28;20400;-71
2023/08/13 10:29:18;;;;;;;4.90;4.40;;;27.20;99.90;;;;;;5069479;28;20427;-70
2023/08/13 10:31:54;;;;;;;4.40;4.10;;;27.60;99.90;;;;;;5069447;28;20181;-71
2023/08/13 10:34:38;;;;;;;5.07;4.60;;;27.50;99.90;;;;;;5069422;28;20444;-70
2023/08/13 10:37:13;;;;;;;4.83;4.40;;;27.40;99.90;;;;;;5064083;28;20483;-71
2023/08/13 10:39:42;;;;;;;4.43;4.03;;;27.40;99.90;;;;;;5065842;28;20419;-71
2023/08/13 10:42:26;;;;;;;4.97;4.47;;;27.70;99.90;;;;;;5069106;28;20428;-71
2023/08/13 10:44:53;;;;;;;4.97;4.13;;;28.00;99.90;;;;;;5065585;28;20399;-70
2023/08/13 10:47:18;;;;;;;4.70;4.30;;;28.20;99.90;;;;;;5069247;28;20413;-71
2023/08/13 10:49:44;;;;;;;3.83;3.53;;;27.90;99.90;;;;;;5069193;28;20953;-71
2023/08/13 10:52:13;;;;;;;4.83;4.43;;;27.70;99.90;;;;;;5069148;28;20166;-72
2023/08/13 10:54:39;;;;;;;5.37;4.87;;;27.70;99.90;;;;;;5065085;28;20625;-70
2023/08/13 10:57:05;;;;;;;4.77;4.30;;;28.00;99.90;;;;;;5069241;28;20921;-71
2023/08/13 10:59:34;;;;;;;5.80;4.37;;;27.60;99.90;;;;;;5069006;28;20437;-70
2023/08/13 11:02:21;;;;;;;4.67;4.17;;;27.30;99.90;;;;;;5069020;28;20403;-70
2023/08/13 11:04:46;;;;;;;5.30;4.40;;;27.20;99.90;;;;;;5067049;28;20408;-70
2023/08/13 11:07:15;;;;;;;5.10;4.37;;;27.60;99.90;;;;;;5066178;28;20396;-70
2023/08/13 11:09:42;;;;;;;4.20;3.90;;;27.70;99.90;;;;;;5063265;28;20166;-69
2023/08/13 11:12:09;;;;;;;4.10;3.80;;;27.90;99.90;;;;;;5068492;28;20401;-70
2023/08/13 11:14:36;;;;;;;4.90;4.40;;;28.10;99.90;;;;;;5068549;28;20419;-71
2023/08/13 11:17:02;;;;;;;5.20;4.53;;;28.30;99.90;;;;;;5068665;28;20494;-71
2023/08/13 11:19:28;;;;;;;4.40;3.83;;;28.80;99.90;;;;;;5068461;28;20455;-71
2023/08/13 11:21:55;;;;;;;6.63;4.60;;;29.00;99.90;;;;;;5068720;28;20621;-71
2023/08/13 11:24:21;;;;;;;4.57;4.20;;;29.10;99.90;;;;;;5063185;28;20825;-71
2023/08/13 11:26:50;;;;;;;3.97;3.57;;;29.00;99.90;;;;;;5055231;28;20401;-71
2023/08/13 11:29:20;;;;;;;6.13;3.80;;;29.20;99.90;;;;;;5055123;28;20424;-71
2023/08/13 11:31:47;;;;;;;5.60;5.03;;;29.30;99.90;;;;;;5055402;28;20505;-71
2023/08/13 11:34:14;;;;;;;4.37;3.97;;;28.70;99.90;;;;;;5054033;28;20445;-71
2023/08/13 11:36:40;;;;;;;4.50;4.20;;;28.70;99.90;;;;;;5055314;28;20471;-71
2023/08/13 11:39:06;;;;;;;4.53;4.13;;;28.30;99.90;;;;;;5051608;28;20421;-71
2023/08/13 11:41:31;;;;;;;5.77;4.10;;;27.90;99.90;;;;;;5054944;28;20181;-71
2023/08/13 11:43:59;;;;;;;4.40;4.07;;;28.20;99.90;;;;;;5054672;28;20175;-71
2023/08/13 11:46:25;;;;;;;4.90;4.43;;;28.30;99.90;;;;;;5053958;28;20198;-71
2023/08/13 11:48:54;;;;;;;4.87;4.13;;;28.60;99.90;;;;;;5054688;28;20445;-71
2023/08/13 11:51:24;;;;;;;6.27;5.13;;;28.20;99.90;;;;;;5054715;28;20664;-71
2023/08/13 11:53:50;;;;;;;6.17;5.57;;;27.90;99.90;;;;;;5054411;28;20467;-70
2023/08/13 11:56:17;;;;;;;5.83;5.27;;;27.40;99.90;;;;;;5054963;28;20756;-70
2023/08/13 11:58:43;;;;;;;6.53;5.60;;;26.60;99.90;;;;;;5054562;28;20561;-71
2023/08/13 12:01:13;;;;;;;6.43;5.83;;;26.50;99.90;;;;;;5054851;28;20458;-71
2023/08/13 12:03:44;;;;;;;6.07;5.53;;;26.40;99.90;;;;;;5054612;28;20397;-70
2023/08/13 12:06:11;;;;;;;6.20;5.60;;;26.60;99.90;;;;;;5050893;28;20390;-71
2023/08/13 12:08:36;;;;;;;6.20;4.53;;;26.80;99.90;;;;;;5050626;28;20437;-71
2023/08/13 12:11:02;;;;;;;6.00;5.20;;;28.00;99.90;;;;;;5054448;28;20394;-71
2023/08/13 12:13:28;;;;;;;6.67;5.17;;;28.70;99.90;;;;;;5052043;28;20198;-71
2023/08/13 12:15:54;;;;;;;6.60;5.10;;;29.10;99.90;;;;;;5054228;28;20171;-71
2023/08/13 12:18:19;;;;;;;5.20;4.77;;;29.70;99.90;;;;;;5054040;28;20456;-70
2023/08/13 12:20:45;;;;;;;6.20;5.60;;;28.80;99.90;;;;;;5054307;28;20545;-70
2023/08/13 12:23:11;;;;;;;5.60;5.10;;;28.70;99.90;;;;;;5053985;28;20170;-71
2023/08/13 12:25:36;;;;;;;5.40;5.00;;;28.80;99.90;;;;;;5054114;28;20587;-72
2023/08/13 12:28:02;;;;;;;6.53;4.90;;;28.80;99.90;;;;;;5053739;28;20296;-71
2023/08/13 12:30:28;;;;;;;4.70;4.30;;;29.20;99.90;;;;;;5054310;28;20599;-71
2023/08/13 12:32:54;;;;;;;7.80;5.83;;;29.40;99.90;;;;;;5054026;28;20524;-71
2023/08/13 12:35:21;;;;;;;5.00;4.60;;;29.20;99.90;;;;;;5053682;28;20576;-70
2023/08/13 12:37:47;;;;;;;5.80;4.90;;;29.90;99.90;;;;;;5053245;28;20429;-71
2023/08/13 12:40:13;;;;;;;4.10;3.70;;;30.80;99.90;;;;;;5050258;28;20918;-71
2023/08/13 12:42:39;;;;;;;5.10;4.33;;;32.00;99.90;;;;;;5053459;28;20915;-71